createdAt,value
2018-06-30T00:01:42.796Z,101003.20
2018-06-30T00:04:10.788Z,101006.98
2018-06-30T00:06:38.856Z,101006.83
2018-06-30T00:09:08.813Z,101008.54
2018-06-30T00:11:37.197Z,101011.34
2018-06-30T00:14:05.200Z,101007.55
2018-06-30T00:16:33.232Z,101004.34
2018-06-30T00:19:01.284Z,101006.29
2018-06-30T00:21:29.323Z,101007.01
2018-06-30T00:23:57.324Z,101009.20
2018-06-30T00:26:25.347Z,101002.12
2018-06-30T00:28:53.308Z,101002.94
2018-06-30T00:31:21.313Z,101005.66
2018-06-30T00:33:49.296Z,101001.08
2018-06-30T00:36:17.324Z,101003.59
2018-06-30T00:38:45.377Z,101008.93
2018-06-30T00:41:13.372Z,101012.22
2018-06-30T00:43:41.386Z,101015.09
2018-06-30T00:46:09.371Z,101013.80
2018-06-30T00:48:37.411Z,101006.24
2018-06-30T00:51:05.398Z,101006.06
2018-06-30T00:53:33.440Z,101010.64
2018-06-30T00:56:01.420Z,101008.00
2018-06-30T00:58:29.409Z,101015.73
2018-06-30T01:00:57.413Z,101019.61
2018-06-30T01:03:25.432Z,101018.63
2018-06-30T01:05:53.453Z,101017.32
2018-06-30T01:08:21.460Z,101013.67
2018-06-30T01:10:49.475Z,101019.64
2018-06-30T01:13:17.471Z,101021.47
2018-06-30T01:15:45.580Z,101027.13
2018-06-30T01:18:13.589Z,101022.39
2018-06-30T01:20:41.556Z,101026.94
2018-06-30T01:23:09.594Z,101020.87
2018-06-30T01:25:37.580Z,101027.45
2018-06-30T01:28:06.069Z,101027.98
2018-06-30T01:30:34.071Z,101030.63
2018-06-30T01:33:02.054Z,101034.15
2018-06-30T01:35:30.023Z,101034.66
2018-06-30T01:37:58.035Z,101036.58
2018-06-30T01:40:26.016Z,101038.42
2018-06-30T01:42:54.013Z,101028.95
2018-06-30T01:45:21.988Z,101034.78
2018-06-30T01:47:49.974Z,101034.53
2018-06-30T01:50:17.936Z,101032.61
2018-06-30T01:52:46.127Z,101029.57
2018-06-30T01:55:14.193Z,101029.67
2018-06-30T01:57:42.177Z,101025.33
2018-06-30T02:00:10.168Z,101023.88
2018-06-30T02:02:38.200Z,101023.50
2018-06-30T02:05:06.248Z,101032.84
2018-06-30T02:07:34.250Z,101030.88
2018-06-30T02:10:02.238Z,101037.64
2018-06-30T02:12:30.229Z,101035.16
2018-06-30T02:14:58.220Z,101033.31
2018-06-30T02:17:26.220Z,101024.83
2018-06-30T02:19:54.255Z,101034.25
2018-06-30T02:22:22.280Z,101030.14
2018-06-30T02:24:50.312Z,101037.63
2018-06-30T02:27:18.332Z,101035.66
2018-06-30T02:29:46.343Z,101030.17
2018-06-30T02:32:14.329Z,101043.10
2018-06-30T02:34:42.300Z,101045.84
2018-06-30T02:37:10.293Z,101043.85
2018-06-30T02:39:38.309Z,101049.56
2018-06-30T02:42:06.329Z,101050.22
2018-06-30T02:44:34.318Z,101054.44
2018-06-30T02:47:02.293Z,101054.28
2018-06-30T02:49:30.428Z,101068.92
2018-06-30T02:51:58.411Z,101062.11
2018-06-30T02:54:26.410Z,101068.63
2018-06-30T02:56:55.057Z,101068.73
2018-06-30T02:59:23.665Z,101071.84
2018-06-30T03:01:51.648Z,101076.98
2018-06-30T03:04:19.621Z,101067.40
2018-06-30T03:06:47.597Z,101065.58
2018-06-30T03:09:15.616Z,101066.61
2018-06-30T03:11:43.658Z,101072.68
2018-06-30T03:14:11.705Z,101076.11
2018-06-30T03:16:39.689Z,101072.97
2018-06-30T03:19:07.700Z,101078.02
2018-06-30T03:21:35.668Z,101077.44
2018-06-30T03:24:03.788Z,101081.42
2018-06-30T03:26:31.769Z,101078.66
2018-06-30T03:28:59.880Z,101079.05
2018-06-30T03:31:27.970Z,101082.55
2018-06-30T03:33:55.883Z,101082.12
2018-06-30T03:36:24.697Z,101089.67
2018-06-30T03:38:52.717Z,101080.98
2018-06-30T03:41:20.693Z,101089.00
2018-06-30T03:43:48.697Z,101089.31
2018-06-30T03:46:16.689Z,101088.63
2018-06-30T03:48:44.720Z,101091.81
2018-06-30T03:51:12.725Z,101090.35
2018-06-30T03:53:40.752Z,101096.66
2018-06-30T03:56:08.727Z,101090.92
2018-06-30T03:58:36.707Z,101093.16
2018-06-30T04:01:04.689Z,101093.23
2018-06-30T04:03:32.661Z,101095.14
2018-06-30T04:06:00.677Z,101095.38
2018-06-30T04:08:28.768Z,101093.40
2018-06-30T04:10:56.772Z,101097.87
2018-06-30T04:13:24.797Z,101098.14
2018-06-30T04:15:52.820Z,101101.31
2018-06-30T04:18:20.851Z,101107.54
2018-06-30T04:20:48.841Z,101100.56
2018-06-30T04:23:16.835Z,101102.38
2018-06-30T04:25:44.813Z,101102.06
2018-06-30T04:28:12.813Z,101103.97
2018-06-30T04:30:40.833Z,101107.57
2018-06-30T04:33:09.097Z,101115.52
2018-06-30T04:35:37.281Z,101116.55
2018-06-30T04:38:05.596Z,101118.73
2018-06-30T04:40:33.653Z,101118.56
2018-06-30T04:43:01.728Z,101121.58
2018-06-30T04:45:29.969Z,101124.56
2018-06-30T04:47:58.101Z,101127.93
2018-06-30T04:50:26.113Z,101129.94
2018-06-30T04:52:54.110Z,101115.66
2018-06-30T04:55:22.120Z,101125.87
2018-06-30T04:57:50.149Z,101122.80
2018-06-30T05:00:18.149Z,101117.22
2018-06-30T05:02:46.221Z,101111.58
2018-06-30T05:05:14.265Z,101120.69
2018-06-30T05:07:42.266Z,101120.00
2018-06-30T05:10:10.268Z,101121.09
2018-06-30T05:12:38.281Z,101126.33
2018-06-30T05:15:06.540Z,101127.44
2018-06-30T05:17:34.569Z,101130.51
2018-06-30T05:20:02.569Z,101124.66
2018-06-30T05:22:30.686Z,101122.81
2018-06-30T05:24:58.681Z,101129.14
2018-06-30T05:27:26.697Z,101132.20
2018-06-30T05:29:54.696Z,101139.20
2018-06-30T05:32:22.675Z,101135.09
2018-06-30T05:34:50.688Z,101141.59
2018-06-30T05:37:18.721Z,101147.82
2018-06-30T05:39:46.777Z,101150.86
2018-06-30T05:42:14.799Z,101152.55
2018-06-30T05:44:42.831Z,101151.48
2018-06-30T05:47:10.857Z,101160.01
2018-06-30T05:49:38.852Z,101160.31
2018-06-30T05:52:06.878Z,101155.22
2018-06-30T05:54:34.901Z,101162.28
2018-06-30T05:57:02.905Z,101153.61
2018-06-30T05:59:30.921Z,101155.92
2018-06-30T06:01:58.920Z,101155.20
2018-06-30T06:04:26.921Z,101159.31
2018-06-30T06:06:54.957Z,101158.38
2018-06-30T06:09:22.976Z,101168.78
2018-06-30T06:14:23.631Z,101171.22
2018-06-30T06:16:51.638Z,101165.17
2018-06-30T06:19:19.656Z,101167.70
2018-06-30T06:21:47.676Z,101174.58
2018-06-30T06:24:15.678Z,101171.83
2018-06-30T06:26:43.689Z,101167.56
2018-06-30T06:29:11.708Z,101167.53
2018-06-30T06:31:39.677Z,101165.45
2018-06-30T06:34:07.689Z,101175.09
2018-06-30T06:36:36.395Z,101174.94
2018-06-30T06:39:06.975Z,101175.34
2018-06-30T06:41:35.044Z,101172.24
2018-06-30T06:44:02.980Z,101175.53
2018-06-30T06:46:31.173Z,101174.55
2018-06-30T06:48:59.175Z,101170.02
2018-06-30T06:51:27.361Z,101173.69
2018-06-30T06:53:55.403Z,101175.53
2018-06-30T06:56:23.404Z,101177.80
2018-06-30T06:58:51.908Z,101175.55
2018-06-30T07:01:19.913Z,101182.21
2018-06-30T07:03:48.004Z,101184.80
2018-06-30T07:06:16.021Z,101185.14
2018-06-30T07:08:44.112Z,101183.73
2018-06-30T07:11:12.137Z,101179.24
2018-06-30T07:13:40.214Z,101172.25
2018-06-30T07:16:08.692Z,101177.17
2018-06-30T07:18:36.684Z,101175.56
2018-06-30T07:21:04.721Z,101178.98
2018-06-30T07:23:32.800Z,101178.95
2018-06-30T07:26:00.839Z,101185.20
2018-06-30T07:28:28.863Z,101180.61
2018-06-30T07:30:56.865Z,101178.41
2018-06-30T07:33:24.897Z,101178.08
2018-06-30T07:35:53.043Z,101179.45
2018-06-30T07:38:20.881Z,101183.95
2018-06-30T07:40:48.899Z,101180.20
2018-06-30T07:43:16.996Z,101180.76
2018-06-30T07:45:44.964Z,101182.02
2018-06-30T07:48:12.989Z,101183.98
2018-06-30T07:50:41.020Z,101192.56
2018-06-30T07:53:09.128Z,101190.22
2018-06-30T07:55:37.165Z,101188.09
2018-06-30T07:58:05.380Z,101188.61
2018-06-30T08:00:33.495Z,101189.89
2018-06-30T08:03:01.549Z,101179.57
2018-06-30T08:05:29.788Z,101184.82
2018-06-30T08:07:57.643Z,101196.26
2018-06-30T08:10:25.650Z,101190.02
2018-06-30T08:12:53.717Z,101188.66
2018-06-30T08:15:21.748Z,101188.10
2018-06-30T08:17:49.765Z,101193.81
2018-06-30T08:20:17.768Z,101185.34
2018-06-30T08:22:45.800Z,101192.14
2018-06-30T08:25:13.819Z,101193.09
2018-06-30T08:27:41.861Z,101193.67
2018-06-30T08:30:09.845Z,101186.37
2018-06-30T08:32:37.900Z,101186.12
2018-06-30T08:35:05.949Z,101187.95
2018-06-30T08:37:33.961Z,101183.42
2018-06-30T08:40:01.945Z,101180.14
2018-06-30T08:42:29.998Z,101185.29
2018-06-30T08:44:58.039Z,101178.62
2018-06-30T08:47:26.161Z,101183.16
2018-06-30T08:49:54.248Z,101173.59
2018-06-30T08:52:22.256Z,101182.27
2018-06-30T08:54:50.253Z,101181.27
2018-06-30T08:57:18.289Z,101180.08
2018-06-30T08:59:46.317Z,101183.78
2018-06-30T09:02:14.301Z,101182.96
2018-06-30T09:04:42.332Z,101180.75
2018-06-30T09:07:10.389Z,101179.05
2018-06-30T09:09:38.689Z,101185.30
2018-06-30T09:12:06.958Z,101183.44
2018-06-30T09:14:34.969Z,101187.25
2018-06-30T09:17:02.949Z,101182.01
2018-06-30T09:19:30.969Z,101186.38
2018-06-30T09:21:59.049Z,101175.19
2018-06-30T09:24:27.060Z,101177.20
2018-06-30T09:26:55.117Z,101172.91
2018-06-30T09:29:23.144Z,101164.48
2018-06-30T09:31:51.149Z,101172.09
2018-06-30T09:34:19.181Z,101170.00
2018-06-30T09:36:47.177Z,101173.59
2018-06-30T09:39:15.197Z,101177.27
2018-06-30T09:41:43.206Z,101173.14
2018-06-30T09:44:11.229Z,101172.83
2018-06-30T09:46:39.236Z,101177.35
2018-06-30T09:49:07.461Z,101176.00
2018-06-30T09:51:35.528Z,101177.80
2018-06-30T09:54:03.530Z,101171.45
2018-06-30T09:56:31.540Z,101166.89
2018-06-30T09:58:59.544Z,101170.95
2018-06-30T10:01:27.540Z,101165.43
2018-06-30T10:03:55.561Z,101174.52
2018-06-30T10:06:23.628Z,101168.70
2018-06-30T10:08:51.653Z,101161.47
2018-06-30T10:11:19.713Z,101164.84
2018-06-30T10:13:47.953Z,101162.08
2018-06-30T10:16:15.980Z,101161.02
2018-06-30T10:18:44.005Z,101164.66
2018-06-30T10:21:12.027Z,101161.12
2018-06-30T10:23:40.031Z,101157.44
2018-06-30T10:26:08.125Z,101164.17
2018-06-30T10:28:36.232Z,101159.29
2018-06-30T10:31:04.225Z,101153.21
2018-06-30T10:33:32.271Z,101163.30
2018-06-30T10:36:00.298Z,101158.61
2018-06-30T10:38:28.310Z,101147.92
2018-06-30T10:40:56.308Z,101153.68
2018-06-30T10:43:24.417Z,101155.03
2018-06-30T10:45:52.528Z,101144.06
2018-06-30T10:48:20.524Z,101147.80
2018-06-30T10:50:48.537Z,101155.86
2018-06-30T10:53:16.594Z,101156.16
2018-06-30T10:55:44.613Z,101150.08
2018-06-30T10:58:12.683Z,101142.43
2018-06-30T11:00:40.689Z,101148.11
2018-06-30T11:03:08.697Z,101138.86
2018-06-30T11:05:36.864Z,101140.02
2018-06-30T11:08:04.869Z,101130.85
2018-06-30T11:10:32.909Z,101124.11
2018-06-30T11:13:00.923Z,101134.94
2018-06-30T11:15:28.946Z,101138.36
2018-06-30T11:17:56.956Z,101129.75
2018-06-30T11:20:24.977Z,101128.33
2018-06-30T11:22:53.000Z,101124.41
2018-06-30T11:25:21.016Z,101120.83
2018-06-30T11:27:49.065Z,101118.57
2018-06-30T11:30:18.073Z,101116.84
2018-06-30T11:32:46.231Z,101125.50
2018-06-30T11:35:14.236Z,101129.79
2018-06-30T11:37:42.253Z,101120.69
2018-06-30T11:40:10.263Z,101117.59
2018-06-30T11:42:38.269Z,101110.82
2018-06-30T11:45:06.392Z,101110.81
2018-06-30T11:47:34.406Z,101115.11
2018-06-30T11:50:02.409Z,101109.61
2018-06-30T11:52:30.446Z,101110.09
2018-06-30T11:54:58.491Z,101097.00
2018-06-30T11:57:26.505Z,101106.80
2018-06-30T11:59:54.500Z,101105.95
2018-06-30T12:02:22.481Z,101099.50
2018-06-30T12:04:50.508Z,101103.25
2018-06-30T12:07:18.548Z,101102.84
2018-06-30T12:09:46.534Z,101099.43
2018-06-30T12:12:14.544Z,101089.73
2018-06-30T12:14:42.580Z,101087.11
2018-06-30T12:17:10.568Z,101090.64
2018-06-30T12:19:38.620Z,101085.61
2018-06-30T12:22:06.657Z,101083.80
2018-06-30T12:24:34.988Z,101084.09
2018-06-30T12:27:02.999Z,101081.39
2018-06-30T12:29:31.000Z,101080.34
2018-06-30T12:31:59.036Z,101088.20
2018-06-30T12:34:27.006Z,101086.07
2018-06-30T12:36:55.124Z,101085.07
2018-06-30T12:39:23.235Z,101084.09
2018-06-30T12:41:51.232Z,101076.54
2018-06-30T12:44:20.259Z,101083.47
2018-06-30T12:46:48.335Z,101077.10
2018-06-30T12:49:16.362Z,101075.58
2018-06-30T12:51:44.409Z,101072.76
2018-06-30T12:54:12.485Z,101068.66
2018-06-30T12:56:40.511Z,101073.73
2018-06-30T12:59:08.578Z,101065.98
2018-06-30T13:01:36.636Z,101068.34
2018-06-30T13:04:04.909Z,101069.36
2018-06-30T13:06:32.929Z,101071.92
2018-06-30T13:09:01.069Z,101062.22
2018-06-30T13:11:29.197Z,101069.30
2018-06-30T13:13:57.357Z,101069.48
2018-06-30T13:16:25.499Z,101070.49
2018-06-30T13:18:53.820Z,101066.65
2018-06-30T13:21:21.848Z,101069.94
2018-06-30T13:23:49.992Z,101060.01
2018-06-30T13:26:18.005Z,101066.71
2018-06-30T13:28:46.114Z,101065.55
2018-06-30T13:31:14.032Z,101064.11
2018-06-30T13:33:42.005Z,101057.51
2018-06-30T13:36:10.012Z,101057.28
2018-06-30T13:38:38.033Z,101063.84
2018-06-30T13:41:06.362Z,101062.19
2018-06-30T13:43:34.365Z,101064.23
2018-06-30T13:46:02.369Z,101057.12
2018-06-30T13:48:30.388Z,101055.98
2018-06-30T13:50:58.417Z,101056.83
2018-06-30T13:53:26.440Z,101056.80
2018-06-30T13:55:54.457Z,101054.97
2018-06-30T13:58:22.500Z,101047.23
2018-06-30T14:00:50.578Z,101047.36
2018-06-30T14:03:18.568Z,101058.87
2018-06-30T14:05:46.589Z,101056.98
2018-06-30T14:08:14.645Z,101055.54
2018-06-30T14:10:42.649Z,101057.63
2018-06-30T14:13:10.667Z,101052.89
2018-06-30T14:15:38.689Z,101054.36
2018-06-30T14:18:06.828Z,101050.37
2018-06-30T14:20:34.840Z,101052.70
2018-06-30T14:23:02.844Z,101040.81
2018-06-30T14:25:31.329Z,101045.14
2018-06-30T14:27:59.364Z,101041.28
2018-06-30T14:30:27.399Z,101038.05
2018-06-30T14:32:55.454Z,101041.02
2018-06-30T14:35:23.471Z,101036.95
2018-06-30T14:37:51.482Z,101040.00
2018-06-30T14:40:19.472Z,101040.80
2018-06-30T14:42:47.524Z,101027.70
2018-06-30T14:45:15.541Z,101027.26
2018-06-30T14:47:43.584Z,101035.11
2018-06-30T14:50:11.637Z,101039.48
2018-06-30T14:52:39.673Z,101038.89
2018-06-30T14:55:07.724Z,101034.89
2018-06-30T14:57:35.723Z,101031.67
2018-06-30T15:00:05.666Z,101031.30
2018-06-30T15:02:33.777Z,101034.05
2018-06-30T15:05:01.797Z,101021.66
2018-06-30T15:07:29.848Z,101029.00
2018-06-30T15:09:57.797Z,101033.87
2018-06-30T15:12:25.901Z,101035.94
2018-06-30T15:14:54.461Z,101032.89
2018-06-30T15:17:22.465Z,101027.13
2018-06-30T15:19:50.446Z,101030.58
2018-06-30T15:22:18.461Z,101023.33
2018-06-30T15:24:46.461Z,101019.13
2018-06-30T15:27:14.457Z,101019.71
2018-06-30T15:29:42.461Z,101017.86
2018-06-30T15:32:10.507Z,101016.63
2018-06-30T15:34:38.496Z,101021.75
2018-06-30T15:37:06.501Z,101023.32
2018-06-30T15:39:34.564Z,101020.83
2018-06-30T15:42:02.585Z,101017.85
2018-06-30T15:44:30.582Z,101024.52
2018-06-30T15:46:58.812Z,101020.22
2018-06-30T15:49:26.832Z,101020.48
2018-06-30T15:51:54.816Z,101027.60
2018-06-30T15:54:22.821Z,101019.45
2018-06-30T15:56:50.832Z,101012.03
2018-06-30T15:59:18.877Z,101012.19
2018-06-30T16:01:46.884Z,101023.00
2018-06-30T16:04:14.870Z,101024.12
2018-06-30T16:06:42.881Z,101013.25
2018-06-30T16:09:11.781Z,101009.50
2018-06-30T16:11:39.780Z,101013.20
2018-06-30T16:14:08.716Z,101002.19
2018-06-30T16:16:36.902Z,101004.62
2018-06-30T16:19:04.938Z,101009.77
2018-06-30T16:21:33.156Z,101006.98
2018-06-30T16:24:01.313Z,101002.30
2018-06-30T16:26:29.456Z,100993.38
2018-06-30T16:28:57.590Z,100994.84
2018-06-30T16:31:25.527Z,100995.05
2018-06-30T16:33:53.545Z,100997.64
2018-06-30T16:36:21.884Z,101006.17
2018-06-30T16:38:49.908Z,100995.27
2018-06-30T16:41:17.928Z,100991.52
2018-06-30T16:43:46.024Z,100999.89
2018-06-30T16:46:13.990Z,100999.44
2018-06-30T16:48:41.993Z,100998.05
2018-06-30T16:51:09.995Z,100989.40
2018-06-30T16:53:37.980Z,100996.06
2018-06-30T16:56:06.026Z,100999.06
2018-06-30T16:58:34.055Z,100992.77
2018-06-30T17:01:02.052Z,100990.73
2018-06-30T17:03:31.114Z,100990.44
2018-06-30T17:05:59.132Z,100990.73
2018-06-30T17:08:27.137Z,100992.53
2018-06-30T17:10:55.156Z,100997.42
2018-06-30T17:13:23.202Z,100991.56
2018-06-30T17:15:51.237Z,100998.98
2018-06-30T17:18:19.289Z,100992.83
2018-06-30T17:20:47.348Z,100990.21
2018-06-30T17:23:15.451Z,100995.25
2018-06-30T17:25:43.488Z,100996.45
2018-06-30T17:28:11.577Z,100992.25
2018-06-30T17:30:39.647Z,100990.13
2018-06-30T17:33:07.668Z,101001.23
2018-06-30T17:35:35.665Z,100995.91
2018-06-30T17:38:03.686Z,100993.46
2018-06-30T17:40:31.667Z,100994.36
2018-06-30T17:42:59.712Z,100992.11
2018-06-30T17:45:27.725Z,100996.33
2018-06-30T17:47:55.845Z,100996.16
2018-06-30T17:50:23.860Z,100997.64
2018-06-30T17:52:51.921Z,100989.23
2018-06-30T17:55:19.928Z,100991.69
2018-06-30T17:57:47.948Z,100992.91
2018-06-30T18:00:15.940Z,100995.78
2018-06-30T18:02:43.962Z,100996.75
2018-06-30T18:05:11.950Z,100997.58
2018-06-30T18:07:39.933Z,101000.41
2018-06-30T18:10:07.969Z,100998.94
2018-06-30T18:12:35.957Z,100999.81
2018-06-30T18:15:04.045Z,101002.69
2018-06-30T18:17:32.077Z,101001.75
2018-06-30T18:20:00.780Z,101004.91
2018-06-30T18:22:28.786Z,101002.93
2018-06-30T18:24:56.860Z,101009.72
2018-06-30T18:27:25.056Z,101004.52
2018-06-30T18:29:53.157Z,101003.69
2018-06-30T18:32:22.176Z,101003.72
2018-06-30T18:34:50.201Z,101005.55
2018-06-30T18:37:18.210Z,101011.78
2018-06-30T18:39:46.404Z,101010.64
2018-06-30T18:42:14.589Z,101016.87
2018-06-30T18:44:42.656Z,101013.53
2018-06-30T18:47:10.841Z,101014.53
2018-06-30T18:49:38.837Z,101016.05
2018-06-30T18:52:06.984Z,101013.16
2018-06-30T18:54:35.033Z,101017.90
2018-06-30T18:57:03.057Z,101017.08
2018-06-30T18:59:31.117Z,101013.20
2018-06-30T19:01:59.087Z,101011.53
2018-06-30T19:04:27.098Z,101009.50
2018-06-30T19:06:55.081Z,101016.58
2018-06-30T19:09:23.240Z,101021.30
2018-06-30T19:11:51.313Z,101024.34
2018-06-30T19:14:19.349Z,101030.52
2018-06-30T19:16:47.339Z,101030.23
2018-06-30T19:19:15.375Z,101034.91
2018-06-30T19:21:43.399Z,101034.24
2018-06-30T19:24:11.577Z,101045.17
2018-06-30T19:26:39.690Z,101044.16
2018-06-30T19:29:07.644Z,101047.51
2018-06-30T19:31:35.612Z,101049.83
2018-06-30T19:34:03.873Z,101053.34
2018-06-30T19:36:32.006Z,101054.53
2018-06-30T19:39:00.150Z,101058.42
2018-06-30T19:41:28.312Z,101057.08
2018-06-30T19:43:56.300Z,101063.30
2018-06-30T19:46:25.035Z,101058.55
2018-06-30T19:48:53.097Z,101059.59
2018-06-30T19:51:21.073Z,101064.98
2018-06-30T19:53:49.074Z,101062.59
2018-06-30T19:56:17.225Z,101066.48
2018-06-30T19:58:45.342Z,101062.77
2018-06-30T20:01:13.402Z,101063.41
2018-06-30T20:03:41.435Z,101067.25
2018-06-30T20:06:09.423Z,101063.52
2018-06-30T20:08:37.441Z,101070.15
2018-06-30T20:11:05.520Z,101071.83
2018-06-30T20:13:33.590Z,101067.03
2018-06-30T20:16:01.853Z,101060.73
2018-06-30T20:18:29.939Z,101062.73
2018-06-30T20:20:58.003Z,101071.37
2018-06-30T20:23:25.985Z,101068.16
2018-06-30T20:25:53.980Z,101067.73
2018-06-30T20:28:22.185Z,101071.27
2018-06-30T20:30:50.221Z,101066.73
2018-06-30T20:33:18.205Z,101073.98
2018-06-30T20:35:46.224Z,101070.77
2018-06-30T20:38:14.192Z,101071.48
2018-06-30T20:40:42.202Z,101074.79
2018-06-30T20:43:10.237Z,101079.91
2018-06-30T20:45:38.265Z,101076.61
2018-06-30T20:48:06.270Z,101083.70
2018-06-30T20:50:34.325Z,101081.92
2018-06-30T20:53:02.381Z,101090.05
2018-06-30T20:55:30.412Z,101093.37
2018-06-30T20:57:58.435Z,101090.34
2018-06-30T21:00:26.553Z,101088.00
2018-06-30T21:02:54.601Z,101092.48
2018-06-30T21:05:22.599Z,101097.97
2018-06-30T21:07:50.675Z,101097.03
2018-06-30T21:10:18.669Z,101100.53
2018-06-30T21:12:46.681Z,101100.59
2018-06-30T21:15:14.669Z,101101.70
2018-06-30T21:17:42.686Z,101105.97
2018-06-30T21:20:10.696Z,101109.87
2018-06-30T21:22:38.697Z,101109.57
2018-06-30T21:25:06.776Z,101114.58
2018-06-30T21:27:34.811Z,101111.41
2018-06-30T21:30:02.886Z,101114.56
2018-06-30T21:32:30.964Z,101123.44
2018-06-30T21:34:59.001Z,101123.72
2018-06-30T21:37:27.034Z,101123.92
2018-06-30T21:39:55.074Z,101124.11
2018-06-30T21:42:23.144Z,101126.72
2018-06-30T21:44:51.322Z,101121.59
2018-06-30T21:47:19.304Z,101122.25
2018-06-30T21:49:47.296Z,101117.92
2018-06-30T21:52:15.300Z,101120.84
2018-06-30T21:54:43.317Z,101124.09
2018-06-30T21:57:11.375Z,101126.70
2018-06-30T21:59:39.370Z,101124.33
2018-06-30T22:02:08.740Z,101129.19
2018-06-30T22:04:37.154Z,101122.42
2018-06-30T22:07:05.157Z,101121.37
2018-06-30T22:09:33.178Z,101130.84
2018-06-30T22:12:01.201Z,101124.59
2018-06-30T22:14:29.225Z,101126.89
2018-06-30T22:16:57.241Z,101127.92
2018-06-30T22:19:25.341Z,101129.03
2018-06-30T22:21:54.126Z,101134.23
2018-06-30T22:24:22.225Z,101125.27
2018-06-30T22:26:50.228Z,101135.97
2018-06-30T22:29:18.245Z,101131.73
2018-06-30T22:31:46.257Z,101130.70
2018-06-30T22:34:14.250Z,101131.42
2018-06-30T22:36:42.244Z,101136.88
2018-06-30T22:39:11.773Z,101143.98
2018-06-30T22:41:39.865Z,101148.95
2018-06-30T22:44:07.976Z,101147.56
2018-06-30T22:46:36.989Z,101137.56
2018-06-30T22:49:05.085Z,101141.62
2018-06-30T22:51:33.148Z,101140.59
2018-06-30T22:54:01.195Z,101148.53
2018-06-30T22:56:29.207Z,101144.63
2018-06-30T22:58:57.174Z,101147.77
2018-06-30T23:01:25.181Z,101152.05
2018-06-30T23:03:53.234Z,101147.03
2018-06-30T23:06:21.237Z,101155.06
2018-06-30T23:08:53.374Z,101162.08
2018-06-30T23:11:21.598Z,101164.02
2018-06-30T23:13:49.614Z,101167.19
2018-06-30T23:16:17.656Z,101171.26
2018-06-30T23:18:45.676Z,101171.16
2018-06-30T23:21:13.670Z,101172.64
2018-06-30T23:23:41.703Z,101179.09
2018-06-30T23:26:09.702Z,101182.39
2018-06-30T23:28:37.737Z,101180.22
2018-06-30T23:31:05.808Z,101179.36
2018-06-30T23:33:33.883Z,101174.55
2018-06-30T23:36:01.873Z,101178.77
2018-06-30T23:38:29.899Z,101185.09
2018-06-30T23:40:57.896Z,101182.06
2018-06-30T23:43:25.926Z,101186.94
2018-06-30T23:45:54.008Z,101184.11
2018-06-30T23:48:22.021Z,101183.98
2018-06-30T23:50:50.020Z,101188.95
2018-06-30T23:53:18.044Z,101183.75
2018-06-30T23:55:46.041Z,101185.19
2018-06-30T23:58:14.041Z,101186.77
